createdAt,value
2022-12-20T00:01:34.505Z,54.08
2022-12-20T00:04:07.512Z,50.28
2022-12-20T00:06:36.015Z,60.10
2022-12-20T00:09:06.234Z,61.40
2022-12-20T00:11:33.042Z,52.53
2022-12-20T00:14:07.200Z,45.92
2022-12-20T00:16:36.545Z,53.25
2022-12-20T00:19:09.636Z,52.97
2022-12-20T00:21:37.081Z,48.80
2022-12-20T00:24:07.108Z,51.63
2022-12-20T00:26:35.090Z,54.38
2022-12-20T00:31:43.034Z,54.85
2022-12-20T00:34:10.004Z,55.65
2022-12-20T00:36:42.393Z,51.42
2022-12-20T00:39:09.940Z,49.63
2022-12-20T00:44:41.540Z,45.28
2022-12-20T00:47:08.085Z,50.65
2022-12-20T00:49:34.613Z,41.55
2022-12-20T00:54:33.017Z,46.17
2022-12-20T00:57:03.968Z,50.42
2022-12-20T00:59:30.871Z,52.78
2022-12-20T01:01:57.984Z,42.97
2022-12-20T01:04:25.893Z,48.00
2022-12-20T01:06:52.409Z,41.97
2022-12-20T01:09:22.846Z,48.60
2022-12-20T01:11:49.808Z,57.45
2022-12-20T01:14:16.543Z,56.63
2022-12-20T01:16:44.371Z,58.05
2022-12-20T01:19:14.933Z,50.13
2022-12-20T01:21:47.802Z,55.63
2022-12-20T01:24:15.252Z,54.33
2022-12-20T01:26:45.569Z,61.38
2022-12-20T01:29:12.128Z,64.45
2022-12-20T01:31:41.731Z,60.88
2022-12-20T01:34:08.409Z,60.03
2022-12-20T01:36:35.996Z,54.72
2022-12-20T01:39:13.409Z,57.03
2022-12-20T01:41:42.007Z,55.00
2022-12-20T01:44:17.463Z,51.38
2022-12-20T01:46:44.684Z,60.55
2022-12-20T01:49:30.047Z,56.20
2022-12-20T01:51:56.639Z,53.90
2022-12-20T01:54:38.755Z,48.63
2022-12-20T01:57:11.783Z,48.35
2022-12-20T01:59:42.149Z,49.65
2022-12-20T02:05:00.009Z,61.97
2022-12-20T02:07:29.594Z,59.28
2022-12-20T02:09:57.569Z,54.65
2022-12-20T02:12:29.330Z,62.47
2022-12-20T02:15:01.821Z,58.55
2022-12-20T02:17:29.057Z,60.90
2022-12-20T02:20:27.807Z,54.72
2022-12-20T02:23:12.915Z,51.50
2022-12-20T02:25:58.006Z,56.75
2022-12-20T02:28:43.069Z,54.38
2022-12-20T02:31:12.099Z,49.47
2022-12-20T02:33:39.731Z,52.65
2022-12-20T02:36:06.467Z,59.33
2022-12-20T02:38:34.031Z,50.38
2022-12-20T02:41:12.948Z,47.17
2022-12-20T02:43:41.644Z,53.10
2022-12-20T02:46:08.983Z,54.35
2022-12-20T02:48:37.379Z,55.40
2022-12-20T02:51:10.707Z,53.53
2022-12-20T02:53:38.004Z,55.53
2022-12-20T02:56:10.329Z,56.83
2022-12-20T02:58:58.745Z,48.65
2022-12-20T03:01:29.834Z,50.55
2022-12-20T03:03:57.826Z,58.70
2022-12-20T03:06:27.925Z,51.20
2022-12-20T03:08:54.513Z,53.60
2022-12-20T03:11:21.034Z,53.15
2022-12-20T03:13:47.504Z,51.08
2022-12-20T03:16:14.135Z,54.65
2022-12-20T03:18:44.228Z,55.00
2022-12-20T03:21:10.803Z,54.90
2022-12-20T03:23:40.216Z,56.08
2022-12-20T03:26:06.744Z,55.05
2022-12-20T03:28:33.283Z,55.83
2022-12-20T03:30:59.874Z,54.15
2022-12-20T03:33:30.554Z,54.38
2022-12-20T03:35:57.045Z,54.40
2022-12-20T03:38:25.941Z,50.63
2022-12-20T03:40:52.476Z,54.05
2022-12-20T03:43:19.081Z,57.67
2022-12-20T03:45:45.626Z,55.35
2022-12-20T03:48:12.158Z,54.65
2022-12-20T03:50:38.921Z,53.67
2022-12-20T03:53:08.891Z,51.85
2022-12-20T03:55:35.433Z,55.75
2022-12-20T03:58:01.959Z,56.78
2022-12-20T04:00:28.444Z,58.53
2022-12-20T04:02:55.176Z,61.45
2022-12-20T04:05:21.791Z,59.17
2022-12-20T04:07:49.920Z,54.60
2022-12-20T04:10:16.541Z,59.58
2022-12-20T04:12:45.511Z,60.10
2022-12-20T04:15:11.945Z,51.20
2022-12-20T04:17:38.448Z,56.50
2022-12-20T04:20:06.062Z,65.10
2022-12-20T04:22:34.915Z,64.22
2022-12-20T04:25:01.409Z,59.53
2022-12-20T04:27:33.142Z,66.93
2022-12-20T04:29:59.636Z,62.55
2022-12-20T04:32:27.971Z,61.25
2022-12-20T04:34:54.493Z,74.75
2022-12-20T04:37:21.027Z,68.43
2022-12-20T04:39:47.466Z,65.53
2022-12-20T04:42:13.964Z,65.35
2022-12-20T04:44:40.409Z,72.13
2022-12-20T04:47:06.899Z,59.42
2022-12-20T04:49:36.520Z,64.32
2022-12-20T04:52:03.101Z,62.58
2022-12-20T04:54:29.687Z,62.47
2022-12-20T04:56:56.177Z,69.75
2022-12-20T04:59:23.983Z,70.57
2022-12-20T05:01:50.612Z,64.88
2022-12-20T05:04:17.216Z,64.10
2022-12-20T05:06:43.775Z,65.10
2022-12-20T05:09:11.059Z,71.53
2022-12-20T05:11:37.507Z,64.30
2022-12-20T05:14:04.001Z,63.08
2022-12-20T05:16:30.511Z,67.68
2022-12-20T05:18:57.076Z,66.45
2022-12-20T05:21:23.533Z,64.70
2022-12-20T05:23:51.051Z,69.00
2022-12-20T05:26:17.485Z,73.45
2022-12-20T05:28:44.125Z,73.93
2022-12-20T05:31:11.503Z,63.75
2022-12-20T05:33:37.966Z,63.20
2022-12-20T05:36:04.574Z,70.75
2022-12-20T05:38:31.152Z,62.58
2022-12-20T05:40:57.772Z,69.38
2022-12-20T05:43:24.305Z,69.03
2022-12-20T05:45:54.992Z,72.15
2022-12-20T05:48:21.665Z,71.90
2022-12-20T05:50:51.501Z,76.28
2022-12-20T05:53:18.028Z,70.95
2022-12-20T05:55:51.427Z,67.05
2022-12-20T05:58:18.371Z,77.53
2022-12-20T06:00:45.126Z,68.20
2022-12-20T06:03:13.182Z,76.05
2022-12-20T06:05:42.107Z,76.70
2022-12-20T06:08:08.634Z,74.70
2022-12-20T06:10:35.123Z,74.55
2022-12-20T06:13:02.087Z,69.85
2022-12-20T06:15:29.118Z,70.82
2022-12-20T06:17:55.945Z,69.25
2022-12-20T06:20:23.837Z,66.45
2022-12-20T06:22:50.379Z,76.07
2022-12-20T06:25:17.153Z,72.22
2022-12-20T06:27:45.073Z,75.35
2022-12-20T06:30:11.777Z,68.35
2022-12-20T06:32:39.362Z,76.13
2022-12-20T06:35:06.150Z,84.65
2022-12-20T06:37:32.644Z,83.20
2022-12-20T06:40:01.731Z,75.72
2022-12-20T06:42:32.059Z,70.93
2022-12-20T06:44:58.559Z,67.45
2022-12-20T06:47:29.327Z,70.88
2022-12-20T06:50:02.218Z,75.60
2022-12-20T06:52:28.682Z,75.13
2022-12-20T06:54:57.100Z,75.88
2022-12-20T06:57:23.606Z,72.60
2022-12-20T06:59:50.066Z,70.13
2022-12-20T07:02:17.055Z,74.05
2022-12-20T07:04:43.681Z,69.90
2022-12-20T07:07:11.747Z,75.40
2022-12-20T07:09:41.502Z,69.35
2022-12-20T07:12:08.553Z,68.25
2022-12-20T07:14:35.072Z,70.20
2022-12-20T07:17:03.244Z,65.97
2022-12-20T07:19:29.748Z,66.18
2022-12-20T07:21:56.429Z,69.72
2022-12-20T07:24:22.941Z,70.20
2022-12-20T07:26:50.080Z,74.45
2022-12-20T07:29:16.618Z,78.55
2022-12-20T07:31:43.160Z,69.00
2022-12-20T07:34:17.438Z,70.80
2022-12-20T07:36:43.914Z,69.63
2022-12-20T07:39:10.754Z,69.20
2022-12-20T07:41:39.967Z,65.47
2022-12-20T07:44:06.712Z,62.85
2022-12-20T07:46:33.420Z,70.97
2022-12-20T07:48:59.970Z,67.82
2022-12-20T07:51:35.508Z,71.50
2022-12-20T07:54:05.776Z,76.50
2022-12-20T07:56:40.936Z,75.88
2022-12-20T07:59:07.889Z,67.30
2022-12-20T08:01:34.457Z,65.78
2022-12-20T08:04:04.090Z,63.63
2022-12-20T08:06:30.706Z,68.03
2022-12-20T08:09:00.175Z,62.88
2022-12-20T08:11:27.984Z,60.15
2022-12-20T08:13:57.989Z,62.45
2022-12-20T08:16:25.355Z,62.35
2022-12-20T08:18:51.955Z,70.63
2022-12-20T08:21:18.431Z,65.10
2022-12-20T08:23:45.163Z,67.03
2022-12-20T08:26:12.080Z,63.92
2022-12-20T08:28:38.558Z,62.63
2022-12-20T08:31:08.997Z,60.50
2022-12-20T08:33:36.430Z,62.30
2022-12-20T08:36:04.989Z,62.83
2022-12-20T08:38:33.208Z,61.50
2022-12-20T08:41:07.450Z,65.53
2022-12-20T08:43:34.203Z,70.18
2022-12-20T08:46:00.915Z,66.18
2022-12-20T08:48:28.163Z,68.80
2022-12-20T08:50:55.578Z,72.32
2022-12-20T08:55:53.820Z,68.18
2022-12-20T08:58:21.392Z,67.68
2022-12-20T09:00:47.834Z,66.53
2022-12-20T09:03:14.583Z,77.75
2022-12-20T09:05:45.411Z,72.38
2022-12-20T09:08:15.220Z,71.70
2022-12-20T09:10:41.768Z,71.63
2022-12-20T09:13:09.229Z,75.88
2022-12-20T09:15:35.891Z,76.20
2022-12-20T09:18:02.393Z,75.47
2022-12-20T09:20:29.346Z,81.07
2022-12-20T09:22:55.976Z,81.00
2022-12-20T09:25:22.554Z,85.43
2022-12-20T09:27:49.080Z,78.63
2022-12-20T09:30:16.772Z,80.40
2022-12-20T09:32:43.310Z,85.47
2022-12-20T09:35:10.005Z,79.78
2022-12-20T09:37:36.466Z,83.35
2022-12-20T09:40:03.100Z,80.82
2022-12-20T09:42:30.231Z,77.45
2022-12-20T09:45:05.863Z,74.95
2022-12-20T09:47:34.489Z,76.95
2022-12-20T09:50:01.157Z,76.95
2022-12-20T09:52:46.279Z,68.93
2022-12-20T09:55:21.605Z,72.97
2022-12-20T09:57:53.953Z,73.65
2022-12-20T10:00:21.317Z,76.90
2022-12-20T10:03:02.460Z,71.78
2022-12-20T10:05:41.679Z,73.90
2022-12-20T10:08:34.494Z,72.28
2022-12-20T10:11:22.239Z,71.65
2022-12-20T10:13:54.964Z,73.63
2022-12-20T10:16:21.562Z,75.68
2022-12-20T10:18:51.248Z,81.70
2022-12-20T10:21:31.542Z,78.15
2022-12-20T10:24:00.564Z,73.38
2022-12-20T10:26:27.805Z,77.15
2022-12-20T10:28:54.784Z,70.57
2022-12-20T10:31:21.615Z,81.18
2022-12-20T10:33:51.180Z,73.32
2022-12-20T10:36:25.378Z,73.13
2022-12-20T10:38:53.376Z,72.13
2022-12-20T10:41:26.095Z,83.40
2022-12-20T10:43:55.662Z,74.15
2022-12-20T10:46:22.328Z,72.43
2022-12-20T10:48:49.220Z,77.78
2022-12-20T10:51:17.374Z,80.97
2022-12-20T10:53:56.327Z,78.50
2022-12-20T10:56:27.210Z,86.05
2022-12-20T10:59:22.764Z,79.70
2022-12-20T11:01:52.685Z,74.60
2022-12-20T11:04:28.575Z,85.95
2022-12-20T11:06:55.806Z,82.30
2022-12-20T11:09:26.654Z,81.75
2022-12-20T11:11:59.550Z,82.45
2022-12-20T11:14:26.473Z,90.85
2022-12-20T11:16:53.803Z,75.25
2022-12-20T11:19:29.543Z,79.97
2022-12-20T11:21:58.732Z,84.25
2022-12-20T11:24:45.339Z,80.80
2022-12-20T11:27:20.909Z,83.93
2022-12-20T11:29:48.335Z,88.80
2022-12-20T11:32:20.696Z,74.85
2022-12-20T11:35:06.075Z,76.60
2022-12-20T11:38:02.615Z,73.82
2022-12-20T11:40:46.475Z,71.78
2022-12-20T11:43:17.342Z,67.20
2022-12-20T11:45:46.939Z,70.72
2022-12-20T11:48:19.237Z,73.40
2022-12-20T11:51:08.626Z,78.88
2022-12-20T11:53:54.618Z,73.65
2022-12-20T11:56:23.888Z,76.10
2022-12-20T11:58:53.682Z,81.72
2022-12-20T12:01:24.557Z,75.78
2022-12-20T12:04:00.593Z,78.05
2022-12-20T12:06:50.115Z,70.82
2022-12-20T12:09:35.154Z,82.72
2022-12-20T12:12:09.785Z,85.80
2022-12-20T12:14:49.306Z,83.47
2022-12-20T12:17:24.459Z,83.68
2022-12-20T12:19:54.459Z,82.72
2022-12-20T12:22:35.196Z,84.20
2022-12-20T12:25:04.275Z,83.25
2022-12-20T12:27:30.981Z,85.38
2022-12-20T12:29:58.728Z,73.60
2022-12-20T12:32:31.323Z,83.78
2022-12-20T12:35:11.229Z,77.95
2022-12-20T12:37:38.039Z,73.32
2022-12-20T12:40:07.558Z,76.38
2022-12-20T12:42:59.100Z,78.55
2022-12-20T12:45:30.854Z,78.47
2022-12-20T12:48:16.376Z,79.25
2022-12-20T12:50:47.405Z,75.88
2022-12-20T12:53:18.944Z,75.63
2022-12-20T12:55:46.734Z,75.07
2022-12-20T12:58:33.584Z,75.10
2022-12-20T13:01:10.402Z,79.57
2022-12-20T13:03:44.881Z,79.53
2022-12-20T13:06:24.422Z,76.40
2022-12-20T13:09:00.158Z,75.00
2022-12-20T13:11:34.959Z,74.53
2022-12-20T13:14:23.626Z,72.03
2022-12-20T13:19:38.309Z,73.30
2022-12-20T13:22:16.943Z,71.53
2022-12-20T13:24:46.390Z,69.28
2022-12-20T13:27:28.619Z,72.13
2022-12-20T13:32:59.587Z,71.85
2022-12-20T13:35:26.183Z,77.25
2022-12-20T13:37:55.618Z,76.50
2022-12-20T13:40:40.527Z,77.43
2022-12-20T13:45:34.374Z,86.03
2022-12-20T13:48:11.394Z,82.43
2022-12-20T13:50:48.338Z,78.25
2022-12-20T13:53:19.156Z,77.50
2022-12-20T13:55:46.144Z,75.13
2022-12-20T13:58:20.470Z,79.65
2022-12-20T14:00:47.558Z,81.47
2022-12-20T14:03:36.851Z,76.15
2022-12-20T14:06:05.070Z,72.78
2022-12-20T14:08:33.414Z,77.25
2022-12-20T14:11:09.045Z,84.75
2022-12-20T14:13:35.956Z,79.03
2022-12-20T14:16:14.946Z,85.88
2022-12-20T14:18:41.582Z,93.28
2022-12-20T14:21:09.166Z,80.47
2022-12-20T14:23:35.669Z,88.18
2022-12-20T14:26:03.508Z,90.53
2022-12-20T14:28:29.935Z,93.47
2022-12-20T14:31:07.342Z,86.22
2022-12-20T14:33:38.404Z,80.90
2022-12-20T14:36:32.502Z,87.68
2022-12-20T14:39:21.509Z,87.03
2022-12-20T14:41:54.844Z,86.18
2022-12-20T14:44:26.702Z,86.60
2022-12-20T14:46:54.693Z,95.22
2022-12-20T14:49:21.263Z,92.30
2022-12-20T14:52:05.992Z,94.13
2022-12-20T14:55:06.426Z,93.20
2022-12-20T14:57:23.322Z,95.53
2022-12-20T15:00:08.650Z,92.30
2022-12-20T15:02:36.983Z,87.75
2022-12-20T15:05:30.446Z,90.80
2022-12-20T15:08:16.803Z,88.22
2022-12-20T15:10:47.279Z,95.07
2022-12-20T15:13:17.620Z,93.22
2022-12-20T15:15:47.207Z,102.78
2022-12-20T15:18:14.948Z,94.93
2022-12-20T15:20:42.134Z,89.45
2022-12-20T15:23:12.821Z,88.70
2022-12-20T15:25:43.170Z,91.05
2022-12-20T15:28:14.427Z,85.90
2022-12-20T15:30:41.090Z,95.55
2022-12-20T15:33:09.035Z,101.68
2022-12-20T15:35:35.962Z,98.93
2022-12-20T15:40:34.559Z,99.35
2022-12-20T15:43:02.764Z,102.97
2022-12-20T15:45:29.295Z,99.47
2022-12-20T15:47:58.804Z,102.32
2022-12-20T15:50:25.376Z,93.60
2022-12-20T15:52:51.976Z,98.55
2022-12-20T15:55:18.511Z,93.50
2022-12-20T15:57:52.726Z,100.47
2022-12-20T16:00:23.847Z,99.65
2022-12-20T16:02:52.510Z,98.05
2022-12-20T16:05:19.177Z,96.15
2022-12-20T16:07:46.394Z,105.53
2022-12-20T16:10:14.279Z,109.53
2022-12-20T16:12:44.355Z,99.15
2022-12-20T16:15:21.852Z,102.88
2022-12-20T16:17:49.452Z,98.00
2022-12-20T16:20:19.061Z,93.43
2022-12-20T16:22:51.683Z,110.75
2022-12-20T16:25:26.503Z,94.53
2022-12-20T16:27:53.284Z,101.97
2022-12-20T16:30:32.635Z,97.25
2022-12-20T16:32:59.216Z,95.60
2022-12-20T16:35:33.289Z,84.78
2022-12-20T16:38:13.199Z,86.72
2022-12-20T16:40:45.758Z,82.55
2022-12-20T16:43:21.634Z,80.32
2022-12-20T16:45:48.197Z,77.05
2022-12-20T16:48:16.276Z,84.18
2022-12-20T16:50:42.996Z,86.88
2022-12-20T16:53:12.479Z,80.50
2022-12-20T16:55:40.072Z,83.25
2022-12-20T16:58:09.450Z,76.05
2022-12-20T17:00:47.293Z,77.13
2022-12-20T17:03:13.920Z,82.43
2022-12-20T17:05:41.507Z,84.57
2022-12-20T17:10:48.410Z,89.80
2022-12-20T17:13:15.032Z,87.40
2022-12-20T17:15:41.664Z,87.20
2022-12-20T17:18:11.647Z,90.38
2022-12-20T17:20:38.196Z,88.53
2022-12-20T17:25:53.759Z,97.95
2022-12-20T17:28:25.059Z,84.93
2022-12-20T17:30:52.620Z,92.55
2022-12-20T17:33:20.342Z,86.43
2022-12-20T17:35:47.665Z,92.85
2022-12-20T17:38:14.587Z,90.47
2022-12-20T17:40:44.654Z,95.05
2022-12-20T17:43:12.473Z,88.75
2022-12-20T17:45:39.071Z,91.70
2022-12-20T17:48:07.098Z,86.72
2022-12-20T17:50:34.205Z,90.28
2022-12-20T17:53:00.676Z,81.07
2022-12-20T17:55:27.975Z,84.25
2022-12-20T17:57:55.631Z,83.00
2022-12-20T18:00:22.165Z,96.97
2022-12-20T18:02:48.773Z,98.35
2022-12-20T18:05:15.437Z,98.90
2022-12-20T18:07:42.254Z,105.70
2022-12-20T18:10:10.605Z,86.55
2022-12-20T18:12:38.502Z,96.82
2022-12-20T18:15:06.233Z,100.55
